createdAt,value
2018-08-13T05:43:35.221Z,712
2018-08-13T05:43:55.439Z,716
2018-08-13T05:44:15.593Z,720
2018-08-13T05:44:35.829Z,720
2018-08-13T05:44:55.994Z,724
2018-08-13T05:45:16.235Z,724
2018-08-13T05:45:36.404Z,724
2018-08-13T05:45:56.570Z,724
2018-08-13T05:46:16.825Z,724
2018-08-13T05:46:37.022Z,724
2018-08-13T05:46:57.292Z,724
2018-08-13T05:47:17.415Z,724
2018-08-13T05:47:37.611Z,724
2018-08-13T05:47:57.737Z,724
2018-08-13T05:48:17.932Z,720
2018-08-13T05:48:38.082Z,724
2018-08-13T05:48:58.217Z,724
2018-08-13T05:49:18.446Z,724
2018-08-13T05:49:38.579Z,720
2018-08-13T05:49:58.715Z,720
2018-08-13T05:50:18.881Z,720
2018-08-13T05:50:39.001Z,720
2018-08-13T05:50:59.211Z,720
2018-08-13T05:51:19.437Z,720
2018-08-13T05:51:39.631Z,720
2018-08-13T05:51:59.838Z,724
2018-08-13T05:52:19.984Z,724
2018-08-13T05:52:40.196Z,720
2018-08-13T05:53:00.508Z,728
2018-08-13T05:53:20.596Z,724
2018-08-13T05:53:40.788Z,724
2018-08-13T05:54:00.950Z,724
2018-08-13T05:54:21.076Z,724
2018-08-13T05:54:41.294Z,724
2018-08-13T05:55:01.479Z,728
2018-08-13T05:55:21.655Z,728
2018-08-13T05:55:41.876Z,728
2018-08-13T05:56:02.044Z,728
2018-08-13T05:56:22.184Z,728
2018-08-13T05:56:42.377Z,728
2018-08-13T05:57:02.530Z,732
2018-08-13T05:57:22.717Z,732
2018-08-13T05:57:42.887Z,732
2018-08-13T05:58:03.043Z,732
2018-08-13T05:58:23.197Z,736
2018-08-13T05:58:43.372Z,736
2018-08-13T05:59:03.523Z,736
2018-08-13T05:59:23.676Z,740
2018-08-13T05:59:43.798Z,740
2018-08-13T06:00:04.020Z,744
2018-08-13T06:00:24.178Z,744
2018-08-13T06:00:44.324Z,744
2018-08-13T06:01:04.475Z,748
2018-08-13T06:01:24.625Z,752
2018-08-13T06:01:44.788Z,756
2018-08-13T06:02:04.994Z,752
2018-08-13T06:02:25.150Z,752
2018-08-13T06:02:45.265Z,756
2018-08-13T06:03:05.563Z,756
2018-08-13T06:03:25.873Z,756
2018-08-13T06:03:46.041Z,756
2018-08-13T06:04:06.190Z,756
2018-08-13T06:04:26.380Z,756
2018-08-13T06:04:46.545Z,756
2018-08-13T06:05:06.711Z,756
2018-08-13T06:05:26.868Z,756
2018-08-13T06:05:47.035Z,760
2018-08-13T06:06:07.204Z,756
2018-08-13T06:06:27.355Z,756
2018-08-13T06:06:47.542Z,756
2018-08-13T06:07:07.690Z,756
2018-08-13T06:07:27.866Z,760
2018-08-13T06:07:48.083Z,760
2018-08-13T06:08:08.312Z,760
2018-08-13T06:08:28.475Z,760
2018-08-13T06:08:48.616Z,764
2018-08-13T06:09:08.788Z,764
2018-08-13T06:09:28.989Z,764
2018-08-13T06:09:49.178Z,768
2018-08-13T06:10:09.431Z,764
2018-08-13T06:10:29.602Z,764
2018-08-13T06:10:49.805Z,772
2018-08-13T06:11:10.107Z,772
2018-08-13T06:11:30.404Z,772
2018-08-13T06:11:50.601Z,772
2018-08-13T06:12:10.762Z,776
2018-08-13T06:12:30.908Z,776
2018-08-13T06:12:51.101Z,776
2018-08-13T06:13:11.243Z,780
2018-08-13T06:13:31.411Z,776
2018-08-13T06:13:51.552Z,776
2018-08-13T06:14:11.715Z,780
2018-08-13T06:14:31.918Z,780
2018-08-13T06:14:52.070Z,776
2018-08-13T06:15:12.229Z,772
2018-08-13T06:15:32.368Z,772
2018-08-13T06:15:52.552Z,772
2018-08-13T06:16:12.687Z,772
2018-08-13T06:16:32.881Z,776
2018-08-13T06:16:53.034Z,776
2018-08-13T06:17:13.220Z,776
2018-08-13T06:17:33.425Z,776
2018-08-13T06:17:53.585Z,776
2018-08-13T06:18:13.962Z,776
2018-08-13T06:18:34.185Z,776
2018-08-13T06:18:54.322Z,776
2018-08-13T06:19:14.651Z,780
2018-08-13T06:19:34.851Z,780
2018-08-13T06:19:55.003Z,784
2018-08-13T06:20:15.213Z,788
2018-08-13T06:20:35.440Z,788
2018-08-13T06:20:55.635Z,792
2018-08-13T06:21:15.808Z,796
2018-08-13T06:21:36.016Z,796
2018-08-13T06:21:56.214Z,800
2018-08-13T06:22:16.429Z,796
2018-08-13T06:22:36.602Z,804
2018-08-13T06:22:56.807Z,804
2018-08-13T06:23:17.102Z,804
2018-08-13T06:23:37.337Z,804
2018-08-13T06:23:57.569Z,804
2018-08-13T06:24:17.717Z,808
2018-08-13T06:24:37.917Z,808
2018-08-13T06:24:58.190Z,812
2018-08-13T06:25:18.396Z,816
2018-08-13T06:25:38.616Z,820
2018-08-13T06:25:58.945Z,824
2018-08-13T06:26:19.248Z,824
2018-08-13T06:26:39.469Z,824
2018-08-13T06:26:59.728Z,824
2018-08-13T06:27:20.059Z,824
2018-08-13T06:27:40.302Z,828
2018-08-13T06:28:00.620Z,832
2018-08-13T06:28:20.781Z,836
2018-08-13T06:28:40.975Z,836
2018-08-13T06:29:01.212Z,840
2018-08-13T06:29:21.392Z,840
2018-08-13T06:29:41.609Z,844
2018-08-13T06:30:01.852Z,844
2018-08-13T06:30:22.115Z,848
2018-08-13T06:30:42.348Z,852
2018-08-13T06:31:02.573Z,852
2018-08-13T06:31:22.782Z,860
2018-08-13T06:31:43.057Z,864
2018-08-13T06:32:03.267Z,868
2018-08-13T06:32:23.571Z,872
2018-08-13T06:32:43.914Z,876
2018-08-13T06:33:04.383Z,880
2018-08-13T06:33:24.778Z,884
2018-08-13T06:33:44.970Z,888
2018-08-13T06:34:05.186Z,892
2018-08-13T06:34:25.611Z,896
2018-08-13T06:34:45.881Z,900
2018-08-13T06:35:06.233Z,900
2018-08-13T06:35:26.625Z,908
2018-08-13T06:35:46.958Z,912
2018-08-13T06:36:07.192Z,912
2018-08-13T06:36:27.527Z,912
2018-08-13T06:36:47.775Z,916
2018-08-13T06:37:08.101Z,916
2018-08-13T06:37:28.387Z,916
2018-08-13T06:37:48.746Z,920
2018-08-13T06:38:09.145Z,916
2018-08-13T06:38:29.435Z,920
2018-08-13T06:38:49.660Z,920
2018-08-13T06:39:09.928Z,924
2018-08-13T06:39:30.093Z,924
2018-08-13T06:39:50.365Z,924
2018-08-13T06:40:10.666Z,928
2018-08-13T06:40:30.968Z,928
2018-08-13T06:40:51.165Z,932
2018-08-13T06:41:11.292Z,928
2018-08-13T06:41:31.586Z,932
2018-08-13T06:41:51.821Z,932
2018-08-13T06:42:12.253Z,932
2018-08-13T06:42:32.474Z,936
2018-08-13T06:42:52.709Z,936
2018-08-13T06:43:12.897Z,940
2018-08-13T06:43:33.071Z,940
2018-08-13T06:43:53.291Z,940
2018-08-13T06:44:13.515Z,940
2018-08-13T06:44:33.694Z,940
2018-08-13T06:44:53.880Z,940
2018-08-13T06:45:14.064Z,940
2018-08-13T06:45:34.244Z,936
2018-08-13T06:45:54.442Z,936
2018-08-13T06:46:14.625Z,940
2018-08-13T06:46:34.839Z,940
2018-08-13T06:46:55.041Z,940
2018-08-13T06:47:15.195Z,936
2018-08-13T06:47:35.356Z,940
2018-08-13T06:47:55.574Z,940
2018-08-13T06:48:15.787Z,944
2018-08-13T06:48:36.067Z,948
2018-08-13T06:48:56.220Z,952
2018-08-13T06:49:16.389Z,956
2018-08-13T06:49:36.583Z,960
2018-08-13T06:49:56.747Z,968
2018-08-13T06:50:16.907Z,968
2018-08-13T06:50:37.059Z,972
2018-08-13T06:50:57.285Z,976
2018-08-13T06:51:17.470Z,976
2018-08-13T06:51:37.686Z,984
2018-08-13T06:51:57.918Z,984
2018-08-13T06:52:18.137Z,988
2018-08-13T06:52:38.322Z,992
2018-08-13T06:52:58.544Z,992
2018-08-13T06:53:18.742Z,996
2018-08-13T06:53:38.901Z,996
2018-08-13T06:53:59.159Z,992
2018-08-13T06:54:19.419Z,992
2018-08-13T06:54:39.712Z,1000
2018-08-13T06:54:59.918Z,996
2018-08-13T06:55:20.211Z,1000
2018-08-13T06:55:40.423Z,1000
2018-08-13T06:56:00.647Z,1004
2018-08-13T06:56:20.937Z,1004
2018-08-13T06:56:41.126Z,1012
2018-08-13T06:57:01.327Z,1012
2018-08-13T06:57:21.582Z,1016
2018-08-13T06:57:41.847Z,1024
2018-08-13T06:58:01.964Z,1028
2018-08-13T06:58:22.182Z,1032
2018-08-13T06:58:42.462Z,1032
2018-08-13T06:59:02.644Z,1036
2018-08-13T06:59:22.890Z,1036
2018-08-13T06:59:43.173Z,1040
2018-08-13T07:00:03.400Z,1040
2018-08-13T07:00:23.682Z,1036
2018-08-13T07:00:44.442Z,1040
2018-08-13T07:01:04.824Z,1036
2018-08-13T07:01:25.080Z,1040
2018-08-13T07:01:45.331Z,1036
2018-08-13T07:02:05.559Z,1044
2018-08-13T07:02:25.756Z,1044
2018-08-13T07:02:46.110Z,1048
2018-08-13T07:03:06.381Z,1044
2018-08-13T07:03:26.620Z,1048
2018-08-13T07:03:46.859Z,1052
2018-08-13T07:04:07.083Z,1052
2018-08-13T07:04:27.320Z,1056
2018-08-13T07:04:47.613Z,1056
2018-08-13T07:05:07.900Z,1064
2018-08-13T07:05:28.132Z,1064
2018-08-13T07:05:48.371Z,1064
2018-08-13T07:06:08.918Z,1064
2018-08-13T07:06:29.231Z,1064
2018-08-13T07:06:49.638Z,1064
2018-08-13T07:07:09.906Z,1064
2018-08-13T07:07:30.148Z,1064
2018-08-13T07:07:50.510Z,1060
2018-08-13T07:08:10.846Z,1056
2018-08-13T07:08:31.100Z,1056
2018-08-13T07:08:51.331Z,1052
2018-08-13T07:09:11.566Z,1056
2018-08-13T07:09:31.734Z,1056
2018-08-13T07:09:52.215Z,1056
2018-08-13T07:10:12.691Z,1052
2018-08-13T07:10:32.991Z,1052
2018-08-13T07:10:53.286Z,1052
2018-08-13T07:11:13.648Z,1056
2018-08-13T07:11:33.938Z,1056
2018-08-13T07:11:54.317Z,1052
2018-08-13T07:12:14.558Z,1060
2018-08-13T07:12:34.938Z,1056
2018-08-13T07:12:55.208Z,1056
2018-08-13T07:13:15.515Z,1056
2018-08-13T07:13:35.872Z,1056
2018-08-13T07:13:56.351Z,1056
2018-08-13T07:14:16.628Z,1056
2018-08-13T07:14:36.968Z,1072
2018-08-13T07:14:57.250Z,1076
2018-08-13T07:15:17.512Z,1084
2018-08-13T07:15:37.747Z,1088
2018-08-13T07:15:57.910Z,1084
2018-08-13T07:16:18.165Z,1084
2018-08-13T07:16:38.443Z,1092
2018-08-13T07:16:58.767Z,1092
2018-08-13T07:17:18.987Z,1092
2018-08-13T07:17:39.213Z,1096
2018-08-13T07:17:59.424Z,1096
2018-08-13T07:18:19.698Z,1096
2018-08-13T07:18:39.961Z,1100
2018-08-13T07:19:00.315Z,1104
2018-08-13T07:19:20.585Z,1108
2018-08-13T07:19:40.892Z,1108
2018-08-13T07:20:01.229Z,1116
2018-08-13T07:20:22.429Z,1116
2018-08-13T07:20:42.710Z,1116
2018-08-13T07:21:03.109Z,1124
2018-08-13T07:21:23.438Z,1120
2018-08-13T07:21:43.698Z,1124
2018-08-13T07:22:04.151Z,1124
2018-08-13T07:22:24.763Z,1128
2018-08-13T07:22:44.954Z,1128
2018-08-13T07:23:06.069Z,1128
2018-08-13T07:23:26.599Z,1136
2018-08-13T07:23:46.874Z,1140
2018-08-13T07:24:07.124Z,1136
2018-08-13T07:24:27.461Z,1136
2018-08-13T07:24:47.829Z,1140
2018-08-13T07:25:08.028Z,1144
2018-08-13T07:25:28.259Z,1144
2018-08-13T07:25:48.472Z,1144
2018-08-13T07:26:08.822Z,1144
2018-08-13T07:26:29.037Z,1100
2018-08-13T07:26:49.196Z,1116
2018-08-13T07:27:09.339Z,1144
2018-08-13T07:27:29.569Z,1152
2018-08-13T07:27:49.884Z,1144
2018-08-13T07:28:10.275Z,1144
2018-08-13T07:28:30.446Z,1136
2018-08-13T07:28:50.671Z,1136
2018-08-13T07:29:10.968Z,1132
2018-08-13T07:29:31.185Z,1120
2018-08-13T07:29:51.498Z,1116
2018-08-13T07:30:11.691Z,1112
2018-08-13T07:30:31.960Z,1108
2018-08-13T07:30:52.259Z,1104
2018-08-13T07:31:12.432Z,1104
2018-08-13T07:31:32.663Z,1100
2018-08-13T07:31:52.927Z,1088
2018-08-13T07:32:13.217Z,1084
2018-08-13T07:32:33.491Z,1080
2018-08-13T07:32:53.725Z,1076
2018-08-13T07:33:13.900Z,1068
2018-08-13T07:33:34.183Z,1064
2018-08-13T07:33:54.480Z,1068
2018-08-13T07:34:14.647Z,1064
2018-08-13T07:34:34.952Z,1060
2018-08-13T07:34:55.138Z,1064
2018-08-13T07:35:15.340Z,1068
2018-08-13T07:35:35.563Z,1044
2018-08-13T07:35:55.897Z,1040
2018-08-13T07:36:16.188Z,1040
2018-08-13T07:36:36.529Z,1036
2018-08-13T07:36:57.007Z,1032
2018-08-13T07:37:17.220Z,1028
2018-08-13T07:37:37.418Z,1028
2018-08-13T07:37:57.593Z,1024
2018-08-13T07:38:17.868Z,1024
2018-08-13T07:38:38.050Z,1020
2018-08-13T07:38:58.277Z,1020
2018-08-13T07:39:18.533Z,1016
2018-08-13T07:39:38.885Z,1012
2018-08-13T07:39:58.914Z,1008
2018-08-13T07:40:19.061Z,1016
2018-08-13T07:40:39.273Z,1016
2018-08-13T07:40:59.428Z,1012
2018-08-13T07:41:19.627Z,1008
2018-08-13T07:41:39.852Z,1004
2018-08-13T07:42:00.024Z,1012
2018-08-13T07:42:20.231Z,1008
2018-08-13T07:42:40.618Z,1012
2018-08-13T07:43:00.847Z,1004
2018-08-13T07:43:21.138Z,1004
2018-08-13T07:43:41.430Z,1008
2018-08-13T07:44:02.497Z,1008
2018-08-13T07:44:22.749Z,1008
2018-08-13T07:44:43.627Z,1012
2018-08-13T07:45:03.886Z,1004
2018-08-13T07:45:25.116Z,1004
2018-08-13T07:45:45.447Z,1004
2018-08-13T07:46:05.573Z,1008
2018-08-13T07:46:25.795Z,1004
2018-08-13T07:46:46.986Z,996
2018-08-13T07:47:07.286Z,1000
2018-08-13T07:47:27.487Z,996
2018-08-13T07:47:47.700Z,1004
2018-08-13T07:48:07.992Z,1000
2018-08-13T07:48:28.203Z,1000
2018-08-13T07:48:48.498Z,1000
2018-08-13T07:49:08.953Z,1000
2018-08-13T07:49:29.139Z,1000
2018-08-13T07:49:49.526Z,1000
2018-08-13T07:50:10.613Z,1000
2018-08-13T07:50:30.905Z,996
2018-08-13T07:50:51.170Z,996
2018-08-13T07:51:11.450Z,992
2018-08-13T07:51:32.739Z,1008
2018-08-13T07:51:53.236Z,1020
2018-08-13T07:52:13.437Z,992
2018-08-13T07:52:33.709Z,1000
2018-08-13T07:52:53.952Z,996
2018-08-13T07:53:14.124Z,996
2018-08-13T07:53:34.363Z,992
2018-08-13T07:53:54.590Z,992
2018-08-13T07:54:14.815Z,988
2018-08-13T07:54:34.983Z,996
2018-08-13T07:54:55.262Z,992
2018-08-13T07:55:15.523Z,992
2018-08-13T07:55:35.837Z,992
2018-08-13T07:55:56.254Z,988
2018-08-13T07:56:16.535Z,1000
2018-08-13T07:56:36.892Z,992
2018-08-13T07:56:57.212Z,992
2018-08-13T07:57:17.480Z,1004
2018-08-13T07:57:38.007Z,1000
2018-08-13T07:57:58.347Z,1012
2018-08-13T07:58:18.767Z,1000
2018-08-13T07:58:39.085Z,1008
2018-08-13T07:58:59.701Z,1004
2018-08-13T07:59:20.050Z,1016
2018-08-13T07:59:40.302Z,1020
2018-08-13T08:00:00.567Z,1020
2018-08-13T08:00:20.769Z,1020
2018-08-13T08:00:41.128Z,1028
2018-08-13T08:01:01.542Z,1040
2018-08-13T08:01:21.713Z,1032
2018-08-13T08:01:41.971Z,1032
2018-08-13T08:02:02.198Z,1036
2018-08-13T08:02:22.409Z,1040
2018-08-13T08:02:42.804Z,1056
2018-08-13T08:03:03.079Z,1040
2018-08-13T08:03:23.459Z,1036
2018-08-13T08:03:43.753Z,1032
2018-08-13T08:04:03.972Z,1036
2018-08-13T08:04:24.225Z,1044
2018-08-13T08:04:44.401Z,1044
2018-08-13T08:05:04.631Z,1048
2018-08-13T08:05:24.906Z,1044
2018-08-13T08:05:45.220Z,1056
2018-08-13T08:06:05.393Z,1064
2018-08-13T08:06:25.697Z,1060
2018-08-13T08:06:45.852Z,1064
2018-08-13T08:07:06.157Z,1064
2018-08-13T08:07:26.369Z,1072
2018-08-13T08:07:46.659Z,1076
2018-08-13T08:08:06.881Z,1084
2018-08-13T08:08:27.153Z,1088
2018-08-13T08:08:47.452Z,1080
2018-08-13T08:09:07.762Z,1088
2018-08-13T08:09:28.154Z,1080
2018-08-13T08:09:48.438Z,1088
2018-08-13T08:10:08.587Z,1100
2018-08-13T08:10:28.776Z,1096
2018-08-13T08:10:49.009Z,1092
2018-08-13T08:11:09.317Z,1104
2018-08-13T08:11:29.592Z,1096
2018-08-13T08:11:49.909Z,1104
2018-08-13T08:12:10.108Z,1100
2018-08-13T08:12:30.348Z,1104
2018-08-13T08:12:50.544Z,1108
2018-08-13T08:13:10.834Z,1112
2018-08-13T08:13:31.065Z,1116
2018-08-13T08:13:51.280Z,1116
2018-08-13T08:14:11.807Z,1120
2018-08-13T08:14:32.142Z,1116
2018-08-13T08:14:52.571Z,1124
2018-08-13T08:15:12.739Z,1128
2018-08-13T08:15:32.977Z,1124
2018-08-13T08:15:53.187Z,1128
2018-08-13T08:16:13.446Z,1148
2018-08-13T08:16:33.592Z,1144
2018-08-13T08:16:53.784Z,1140
2018-08-13T08:17:13.943Z,1144
2018-08-13T08:17:34.219Z,1156
2018-08-13T08:17:54.570Z,1160
2018-08-13T08:18:14.780Z,1160
2018-08-13T08:18:34.997Z,1156
2018-08-13T08:18:55.180Z,1160
2018-08-13T08:19:15.347Z,1176
2018-08-13T08:19:35.592Z,1188
2018-08-13T08:19:55.794Z,1188
2018-08-13T08:20:15.994Z,1192
2018-08-13T08:20:36.348Z,1204
2018-08-13T08:20:56.570Z,1196
2018-08-13T08:21:16.739Z,1200
2018-08-13T08:21:37.040Z,1208
2018-08-13T08:21:57.310Z,1200
2018-08-13T08:22:17.539Z,1204
2018-08-13T08:22:37.713Z,1200
2018-08-13T08:22:57.939Z,1200
2018-08-13T08:23:18.172Z,1192
2018-08-13T08:23:38.404Z,1188
2018-08-13T08:23:58.768Z,1188
2018-08-13T08:24:18.928Z,1192
2018-08-13T08:24:39.252Z,1180
2018-08-13T08:24:59.491Z,1176
2018-08-13T08:25:19.745Z,1196
2018-08-13T08:25:39.961Z,1196
2018-08-13T08:26:00.162Z,1192
2018-08-13T08:26:20.372Z,1192
2018-08-13T08:26:40.820Z,1196
2018-08-13T08:27:01.001Z,1200
2018-08-13T08:27:21.199Z,1204
2018-08-13T08:27:41.388Z,1192
2018-08-13T08:28:01.686Z,1192
2018-08-13T08:28:22.175Z,1244
2018-08-13T08:28:42.350Z,1200
2018-08-13T08:29:03.784Z,1192
2018-08-13T08:29:24.103Z,1164
2018-08-13T08:29:44.338Z,1212
2018-08-13T08:30:04.568Z,1212
2018-08-13T08:30:25.090Z,1220
2018-08-13T08:30:45.760Z,1236
2018-08-13T08:31:06.109Z,1200
2018-08-13T08:31:26.281Z,1212
2018-08-13T08:31:46.523Z,1220
2018-08-13T08:32:06.705Z,1228
2018-08-13T08:32:26.913Z,1228
2018-08-13T08:32:47.166Z,1224
2018-08-13T08:33:07.369Z,1244
2018-08-13T08:33:27.589Z,1212
2018-08-13T08:33:47.871Z,1212
2018-08-13T08:34:08.265Z,1220
2018-08-13T08:34:29.290Z,1240
2018-08-13T08:34:49.862Z,1236
2018-08-13T08:35:10.015Z,1232
2018-08-13T08:35:30.317Z,1208
2018-08-13T08:35:50.537Z,1224
2018-08-13T08:36:10.814Z,1208
2018-08-13T08:36:31.282Z,1240
2018-08-13T08:36:52.300Z,1212
2018-08-13T08:37:12.597Z,1232
2018-08-13T08:37:32.855Z,1224
2018-08-13T08:37:53.127Z,1224
2018-08-13T08:38:13.299Z,1228
2018-08-13T08:38:33.581Z,1228
2018-08-13T08:38:53.915Z,1232
2018-08-13T08:39:14.184Z,1248
2018-08-13T08:39:34.524Z,1240
2018-08-13T08:39:54.935Z,1248
2018-08-13T08:40:15.497Z,1252
2018-08-13T08:40:35.866Z,1248
2018-08-13T08:40:56.095Z,1240
2018-08-13T08:41:16.332Z,1240
2018-08-13T08:41:36.551Z,1228
2018-08-13T08:41:56.926Z,1240
2018-08-13T08:42:17.159Z,1248
2018-08-13T08:42:37.408Z,1260
2018-08-13T08:42:57.768Z,1244
2018-08-13T08:43:18.060Z,1244
2018-08-13T08:43:39.156Z,1248
2018-08-13T08:43:59.423Z,1280
2018-08-13T08:44:19.629Z,1244
2018-08-13T08:44:39.821Z,1240
2018-08-13T08:45:00.075Z,1240
2018-08-13T08:45:20.306Z,1248
2018-08-13T08:45:40.609Z,1240
2018-08-13T08:46:01.293Z,1236
2018-08-13T08:46:21.563Z,1240
2018-08-13T08:46:41.827Z,1244
2018-08-13T08:47:02.042Z,1236
2018-08-13T08:47:22.298Z,1232
2018-08-13T08:47:42.711Z,1244
2018-08-13T08:48:03.043Z,1244
2018-08-13T08:48:23.367Z,1260
2018-08-13T08:48:43.646Z,1248
2018-08-13T08:49:03.906Z,1228
2018-08-13T08:49:24.171Z,1228
2018-08-13T08:49:44.432Z,1228
2018-08-13T08:50:04.751Z,1228
2018-08-13T08:50:25.085Z,1252
2018-08-13T08:50:45.376Z,1252
2018-08-13T08:51:05.623Z,1248
2018-08-13T08:51:25.832Z,1252
2018-08-13T08:51:46.259Z,1248
2018-08-13T08:52:06.614Z,1264
2018-08-13T08:52:26.826Z,1248
2018-08-13T08:52:47.318Z,1248
2018-08-13T08:53:07.524Z,1232
2018-08-13T08:53:27.756Z,1280
2018-08-13T08:53:48.356Z,1264
2018-08-13T08:54:08.793Z,1252
2018-08-13T08:54:30.223Z,1272
2018-08-13T08:54:50.660Z,1276
2018-08-13T08:55:11.021Z,1264
2018-08-13T08:55:31.307Z,1264
2018-08-13T08:55:51.543Z,1264
2018-08-13T08:56:11.836Z,1248
2018-08-13T08:56:32.227Z,1244
2018-08-13T08:56:52.479Z,1228
2018-08-13T08:57:12.531Z,1196
2018-08-13T08:57:32.823Z,1256
2018-08-13T08:57:53.067Z,1256
2018-08-13T08:58:13.314Z,1248
2018-08-13T08:58:33.557Z,1256
2018-08-13T08:58:53.821Z,1236
2018-08-13T08:59:14.129Z,1232
2018-08-13T08:59:34.436Z,1264
2018-08-13T08:59:54.642Z,1276
2018-08-13T09:00:14.925Z,1268
2018-08-13T09:00:35.153Z,1264
2018-08-13T09:00:55.566Z,1268
2018-08-13T09:01:16.698Z,1272
2018-08-13T09:01:37.163Z,1264
2018-08-13T09:01:57.157Z,1256
2018-08-13T09:02:17.400Z,1236
2018-08-13T09:02:37.685Z,1220
2018-08-13T09:02:58.090Z,1192
2018-08-13T09:03:18.294Z,1192
2018-08-13T09:03:38.472Z,1188
2018-08-13T09:03:58.711Z,1132
2018-08-13T09:04:18.893Z,1128
2018-08-13T09:04:39.077Z,1204
2018-08-13T09:04:59.267Z,1232
2018-08-13T09:05:19.492Z,1236
2018-08-13T09:05:39.653Z,1248
2018-08-13T09:05:59.874Z,1228
2018-08-13T09:06:20.273Z,1232
2018-08-13T09:06:40.482Z,1224
2018-08-13T09:07:00.664Z,1208
2018-08-13T09:07:20.843Z,1188
2018-08-13T09:07:41.020Z,1164
2018-08-13T09:08:01.223Z,1132
2018-08-13T09:08:21.444Z,1152
2018-08-13T09:08:41.669Z,1164
2018-08-13T09:09:01.824Z,1172
2018-08-13T09:09:21.967Z,1140
2018-08-13T09:09:42.126Z,1136
2018-08-13T09:10:02.345Z,1168
2018-08-13T09:10:22.520Z,1164
2018-08-13T09:10:42.747Z,1184
2018-08-13T09:11:02.948Z,1200
2018-08-13T09:11:23.201Z,1204
2018-08-13T09:11:43.600Z,1176
2018-08-13T09:12:03.937Z,1192
2018-08-13T09:12:24.390Z,1192
2018-08-13T09:12:44.674Z,1204
2018-08-13T09:13:05.002Z,1204
2018-08-13T09:13:25.327Z,1192
2018-08-13T09:13:45.548Z,1208
2018-08-13T09:14:05.820Z,1176
2018-08-13T09:14:25.936Z,1144
2018-08-13T09:14:46.208Z,1156
2018-08-13T09:15:06.530Z,1172
2018-08-13T09:15:26.699Z,1172
2018-08-13T09:15:46.988Z,1180
2018-08-13T09:16:07.231Z,1176
2018-08-13T09:16:27.432Z,1172
2018-08-13T09:16:47.693Z,1176
2018-08-13T09:17:07.890Z,1172
2018-08-13T09:17:28.102Z,1180
2018-08-13T09:17:48.346Z,1184
2018-08-13T09:18:08.530Z,1180
2018-08-13T09:18:28.884Z,1184
2018-08-13T09:18:49.089Z,1180
2018-08-13T09:19:09.445Z,1188
2018-08-13T09:19:29.688Z,1192
2018-08-13T09:19:49.964Z,1196
2018-08-13T09:20:10.236Z,1200
2018-08-13T09:20:30.586Z,1200
2018-08-13T09:20:50.859Z,1196
2018-08-13T09:21:11.079Z,1200
2018-08-13T09:21:31.355Z,1204
2018-08-13T09:21:51.677Z,1204
2018-08-13T09:22:12.075Z,1204
2018-08-13T09:22:32.766Z,1208
2018-08-13T09:22:53.740Z,1188
2018-08-13T09:23:15.702Z,1200
2018-08-13T09:23:36.029Z,1204
2018-08-13T09:23:56.316Z,1208
2018-08-13T09:24:16.729Z,1216
2018-08-13T09:24:36.854Z,1220
2018-08-13T09:24:57.102Z,1216
2018-08-13T09:25:17.275Z,1232
2018-08-13T09:25:37.527Z,1216
2018-08-13T09:25:57.860Z,1212
2018-08-13T09:26:18.060Z,1216
2018-08-13T09:26:38.279Z,1236
2018-08-13T09:26:58.636Z,1220
2018-08-13T09:27:18.939Z,1220
2018-08-13T09:27:39.226Z,1224
2018-08-13T09:27:59.768Z,1224
2018-08-13T09:28:20.095Z,1224
2018-08-13T09:28:40.413Z,1228
2018-08-13T09:29:00.461Z,1224
2018-08-13T09:29:20.798Z,1224
2018-08-13T09:29:41.172Z,1240
2018-08-13T09:30:01.567Z,1240
2018-08-13T09:30:22.297Z,1228
2018-08-13T09:30:42.594Z,1228
2018-08-13T09:31:02.920Z,1228
2018-08-13T09:31:23.251Z,1228
2018-08-13T09:31:43.455Z,1228
2018-08-13T09:32:03.488Z,1228
2018-08-13T09:32:24.042Z,1228
2018-08-13T09:32:44.321Z,1224
2018-08-13T09:33:04.557Z,1228
2018-08-13T09:33:24.867Z,1228
2018-08-13T09:33:45.190Z,1220
2018-08-13T09:34:05.538Z,1248
2018-08-13T09:34:25.857Z,1220
2018-08-13T09:34:46.077Z,1232
2018-08-13T09:35:06.402Z,1212
2018-08-13T09:35:26.725Z,1244
2018-08-13T09:35:47.038Z,1228
2018-08-13T09:36:07.628Z,1284
2018-08-13T09:36:27.976Z,1244
2018-08-13T09:36:48.378Z,1240
2018-08-13T09:37:08.626Z,1228
2018-08-13T09:37:28.930Z,1220
2018-08-13T09:37:49.206Z,1264
2018-08-13T09:38:09.499Z,1248
2018-08-13T09:38:29.985Z,1248
2018-08-13T09:38:50.405Z,1280
2018-08-13T09:39:10.665Z,1256
2018-08-13T09:39:30.957Z,1252
2018-08-13T09:39:51.192Z,1256
2018-08-13T09:40:11.502Z,1256
2018-08-13T09:40:31.804Z,1156
2018-08-13T09:40:51.786Z,1100
2018-08-13T09:41:12.010Z,1268
2018-08-13T09:41:32.350Z,1252
2018-08-13T09:41:52.612Z,1248
2018-08-13T09:42:12.815Z,1256
2018-08-13T09:42:32.992Z,1232
2018-08-13T09:42:53.203Z,1232
2018-08-13T09:43:14.236Z,1224
2018-08-13T09:43:34.414Z,1256
2018-08-13T09:43:54.625Z,1232
2018-08-13T09:44:14.853Z,1240
2018-08-13T09:44:35.121Z,1232
2018-08-13T09:44:55.389Z,1244
2018-08-13T09:45:15.471Z,1240
2018-08-13T09:45:35.735Z,1248
2018-08-13T09:45:56.016Z,1248
2018-08-13T09:46:17.098Z,1248
2018-08-13T09:46:37.378Z,1248
2018-08-13T09:46:57.774Z,1248
2018-08-13T09:47:18.127Z,1248
2018-08-13T09:47:38.518Z,1248
2018-08-13T09:47:59.021Z,1248
2018-08-13T09:48:19.382Z,1244
2018-08-13T09:48:39.764Z,1244
2018-08-13T09:49:00.142Z,1236
2018-08-13T09:49:20.494Z,1236
2018-08-13T09:49:41.859Z,1244
2018-08-13T09:50:02.344Z,1240
2018-08-13T09:50:22.714Z,1232
2018-08-13T09:50:42.977Z,1224
2018-08-13T09:51:03.352Z,1224
2018-08-13T09:51:23.794Z,1236
2018-08-13T09:51:44.030Z,1240
2018-08-13T09:52:04.229Z,1240
2018-08-13T09:52:24.520Z,1256
2018-08-13T09:52:44.818Z,1244
2018-08-13T09:53:05.134Z,1252
2018-08-13T09:53:25.167Z,1260
2018-08-13T09:53:45.542Z,1240
2018-08-13T09:54:05.768Z,1252
2018-08-13T09:54:26.080Z,1256
2018-08-13T09:54:46.341Z,1260
2018-08-13T09:55:06.736Z,1264
2018-08-13T09:55:27.080Z,1244
2018-08-13T09:55:47.269Z,1288
2018-08-13T09:56:07.529Z,1264
2018-08-13T09:56:27.935Z,1244
2018-08-13T09:56:48.209Z,1244
2018-08-13T09:57:08.480Z,1248
2018-08-13T09:57:28.774Z,1248
2018-08-13T09:57:49.001Z,1240
2018-08-13T09:58:09.297Z,1244
2018-08-13T09:58:29.692Z,1284
2018-08-13T09:58:50.074Z,1256
2018-08-13T09:59:10.379Z,1260
2018-08-13T09:59:30.805Z,1256
2018-08-13T09:59:51.124Z,1264
2018-08-13T10:00:11.583Z,1288
2018-08-13T10:00:31.951Z,1268
2018-08-13T10:00:52.425Z,1264
2018-08-13T10:01:12.632Z,1260
2018-08-13T10:01:32.870Z,1248
2018-08-13T10:01:53.210Z,1272
2018-08-13T10:02:13.471Z,1276
2018-08-13T10:02:33.774Z,1268
2018-08-13T10:02:54.002Z,1268
2018-08-13T10:03:14.372Z,1280
2018-08-13T10:03:34.846Z,1280
2018-08-13T10:03:55.136Z,1268
2018-08-13T10:04:15.339Z,1276
2018-08-13T10:04:35.607Z,1272
2018-08-13T10:04:57.009Z,1284
2018-08-13T10:05:17.525Z,1280
2018-08-13T10:05:37.819Z,1272
2018-08-13T10:05:58.103Z,1280
2018-08-13T10:06:18.337Z,1276
2018-08-13T10:06:38.912Z,1284
2018-08-13T10:06:59.288Z,1288
2018-08-13T10:07:20.032Z,1296
2018-08-13T10:07:40.442Z,1300
2018-08-13T10:08:00.920Z,1296
2018-08-13T10:08:21.529Z,1292
2018-08-13T10:08:42.075Z,1288
2018-08-13T10:09:03.170Z,1280
2018-08-13T10:09:24.670Z,1272
2018-08-13T10:09:45.147Z,1288
2018-08-13T10:10:05.838Z,1272
2018-08-13T10:10:26.063Z,1284
2018-08-13T10:10:46.527Z,1276
2018-08-13T10:11:06.933Z,1292
2018-08-13T10:11:27.159Z,1296
2018-08-13T10:11:47.363Z,1300
2018-08-13T10:12:07.692Z,1308
2018-08-13T10:12:28.311Z,1316
2018-08-13T10:12:49.188Z,1316
2018-08-13T10:13:09.400Z,1320
2018-08-13T10:13:29.648Z,1324
2018-08-13T10:13:50.029Z,1320
2018-08-13T10:14:10.326Z,1324
2018-08-13T10:14:30.639Z,1308
2018-08-13T10:14:51.822Z,1304
2018-08-13T10:15:12.122Z,1304
2018-08-13T10:15:32.333Z,1292
2018-08-13T10:15:52.631Z,1312
2018-08-13T10:16:13.039Z,1316